createdAt,value
2022-08-17T00:02:26.367Z,11.43
2022-08-17T00:04:54.404Z,12.00
2022-08-17T00:07:21.203Z,11.70
2022-08-17T00:09:47.799Z,12.10
2022-08-17T00:12:41.620Z,12.05
2022-08-17T00:15:01.716Z,12.25
2022-08-17T00:17:28.400Z,12.68
2022-08-17T00:19:54.992Z,12.82
2022-08-17T00:22:35.299Z,12.60
2022-08-17T00:25:07.083Z,12.50
2022-08-17T00:27:33.813Z,12.52
2022-08-17T00:30:00.410Z,13.43
2022-08-17T00:33:12.093Z,12.27
2022-08-17T00:35:18.283Z,12.75
2022-08-17T00:37:44.946Z,13.23
2022-08-17T00:40:14.311Z,13.05
2022-08-17T00:42:41.957Z,12.65
2022-08-17T00:45:11.071Z,13.35
2022-08-17T00:47:37.801Z,13.13
2022-08-17T00:50:07.287Z,13.30
2022-08-17T00:52:38.859Z,12.95
2022-08-17T00:55:07.560Z,12.82
2022-08-17T00:57:43.366Z,13.98
2022-08-17T01:00:26.639Z,13.48
2022-08-17T01:02:58.937Z,13.00
2022-08-17T01:05:28.235Z,12.30
2022-08-17T01:07:55.852Z,12.68
2022-08-17T01:11:00.084Z,12.13
2022-08-17T01:13:16.723Z,12.43
2022-08-17T01:15:50.409Z,12.50
2022-08-17T01:18:17.126Z,12.07
2022-08-17T01:20:57.609Z,12.55
2022-08-17T01:23:25.961Z,12.35
2022-08-17T01:25:57.244Z,12.50
2022-08-17T01:28:52.999Z,12.45
2022-08-17T01:31:14.113Z,12.15
2022-08-17T01:33:40.994Z,12.15
2022-08-17T01:36:08.266Z,12.25
2022-08-17T01:38:36.695Z,12.88
2022-08-17T01:41:07.883Z,12.10
2022-08-17T01:43:43.543Z,11.88
2022-08-17T01:46:17.049Z,11.93
2022-08-17T01:48:47.277Z,11.95
2022-08-17T01:51:15.889Z,11.85
2022-08-17T01:53:47.511Z,11.23
2022-08-17T01:56:17.953Z,11.93
2022-08-17T01:58:45.597Z,11.40
2022-08-17T02:01:14.767Z,12.40
2022-08-17T02:03:41.890Z,11.70
2022-08-17T02:06:27.225Z,11.57
2022-08-17T02:09:01.752Z,11.88
2022-08-17T02:11:31.347Z,11.20
2022-08-17T02:14:03.419Z,11.68
2022-08-17T02:16:37.916Z,11.98
2022-08-17T02:19:07.895Z,11.50
2022-08-17T02:21:35.681Z,11.25
2022-08-17T02:24:03.100Z,11.80
2022-08-17T02:26:30.016Z,11.50
2022-08-17T02:28:56.741Z,10.90
2022-08-17T02:31:23.363Z,11.57
2022-08-17T02:34:03.344Z,11.35
2022-08-17T02:36:31.238Z,11.07
2022-08-17T02:38:58.601Z,11.75
2022-08-17T02:41:25.407Z,12.73
2022-08-17T02:43:53.128Z,12.70
2022-08-17T02:46:19.784Z,13.18
2022-08-17T02:48:46.410Z,13.23
2022-08-17T02:51:13.210Z,14.10
2022-08-17T02:53:40.069Z,13.45
2022-08-17T02:56:06.891Z,13.43
2022-08-17T02:58:35.270Z,13.85
2022-08-17T03:01:06.416Z,14.38
2022-08-17T03:03:33.555Z,14.02
2022-08-17T03:06:00.725Z,14.00
2022-08-17T03:08:27.812Z,14.70
2022-08-17T03:10:54.440Z,14.48
2022-08-17T03:13:21.556Z,14.52
2022-08-17T03:15:48.826Z,14.10
2022-08-17T03:18:25.122Z,14.40
2022-08-17T03:21:01.000Z,13.73
2022-08-17T03:23:29.667Z,14.27
2022-08-17T03:25:57.242Z,13.80
2022-08-17T03:28:24.946Z,13.50
2022-08-17T03:30:52.416Z,13.77
2022-08-17T03:33:19.426Z,13.55
2022-08-17T03:35:46.354Z,13.40
2022-08-17T03:38:15.117Z,13.00
2022-08-17T03:40:57.976Z,13.38
2022-08-17T03:43:30.965Z,13.63
2022-08-17T03:46:33.961Z,13.55
2022-08-17T03:49:20.850Z,13.07
2022-08-17T03:52:06.194Z,14.70
2022-08-17T03:54:51.546Z,14.15
2022-08-17T03:57:19.132Z,13.65
2022-08-17T03:59:46.103Z,14.45
2022-08-17T04:02:18.113Z,13.77
2022-08-17T04:04:44.787Z,13.75
2022-08-17T04:07:11.828Z,14.20
2022-08-17T04:09:38.452Z,14.32
2022-08-17T04:12:05.658Z,14.02
2022-08-17T04:14:52.641Z,15.38
2022-08-17T04:17:21.685Z,15.10
2022-08-17T04:19:48.310Z,15.50
2022-08-17T04:22:30.847Z,15.57
2022-08-17T04:25:14.141Z,13.93
2022-08-17T04:27:40.911Z,14.02
2022-08-17T04:30:08.311Z,13.80
2022-08-17T04:33:10.772Z,14.50
2022-08-17T04:35:46.356Z,15.20
2022-08-17T04:38:16.415Z,16.20
2022-08-17T04:41:02.545Z,15.80
2022-08-17T04:43:31.238Z,15.98
2022-08-17T04:46:07.179Z,16.25
2022-08-17T04:48:37.576Z,15.60
2022-08-17T04:51:09.387Z,15.50
2022-08-17T04:53:36.405Z,17.90
2022-08-17T04:56:03.196Z,17.60
2022-08-17T04:58:29.814Z,18.65
2022-08-17T05:00:56.497Z,19.00
2022-08-17T05:03:23.127Z,18.10
2022-08-17T05:05:50.104Z,17.55
2022-08-17T05:08:19.121Z,16.85
2022-08-17T05:10:46.754Z,16.10
2022-08-17T05:13:22.583Z,16.20
2022-08-17T05:15:52.619Z,16.10
2022-08-17T05:18:19.197Z,14.75
2022-08-17T05:20:45.826Z,13.95
2022-08-17T05:23:15.364Z,13.80
2022-08-17T05:25:49.281Z,14.05
2022-08-17T05:28:18.786Z,13.90
2022-08-17T05:30:50.508Z,14.23
2022-08-17T05:33:20.769Z,13.93
2022-08-17T05:35:49.206Z,14.02
2022-08-17T05:38:18.886Z,13.25
2022-08-17T05:40:45.656Z,13.77
2022-08-17T05:43:15.548Z,15.10
2022-08-17T05:45:55.461Z,15.57
2022-08-17T05:48:39.079Z,14.90
2022-08-17T05:51:32.295Z,15.30
2022-08-17T05:54:27.731Z,14.77
2022-08-17T05:57:20.823Z,14.77
2022-08-17T06:00:10.011Z,13.95
2022-08-17T06:02:48.705Z,13.23
2022-08-17T06:05:35.571Z,13.13
2022-08-17T06:08:08.543Z,13.10
2022-08-17T06:10:41.145Z,14.68
2022-08-17T06:13:31.634Z,12.57
2022-08-17T06:16:33.213Z,14.75
2022-08-17T06:19:17.221Z,12.93
2022-08-17T06:21:47.249Z,13.45
2022-08-17T06:24:42.374Z,13.73
2022-08-17T06:27:19.004Z,12.90
2022-08-17T06:30:09.283Z,12.95
2022-08-17T06:32:42.456Z,11.23
2022-08-17T06:35:11.816Z,13.43
2022-08-17T06:38:37.746Z,12.02
2022-08-17T06:41:38.140Z,12.23
2022-08-17T06:44:43.371Z,10.90
2022-08-17T06:47:39.928Z,10.60
2022-08-17T06:50:22.062Z,10.13
2022-08-17T06:52:59.885Z,9.00
2022-08-17T06:55:37.930Z,11.00
2022-08-17T06:58:12.385Z,9.70
2022-08-17T07:00:46.522Z,9.48
2022-08-17T07:03:37.627Z,8.82
2022-08-17T07:06:18.107Z,9.45
2022-08-17T07:09:16.068Z,9.63
2022-08-17T07:11:51.737Z,10.98
2022-08-17T07:14:39.401Z,8.57
2022-08-17T07:17:18.267Z,7.85
2022-08-17T07:19:47.380Z,7.70
2022-08-17T07:22:24.384Z,8.40
2022-08-17T07:25:04.282Z,7.82
2022-08-17T07:27:43.651Z,7.80
2022-08-17T07:30:19.354Z,8.25
2022-08-17T07:33:13.427Z,8.02
2022-08-17T07:35:45.059Z,7.18
2022-08-17T07:38:25.457Z,7.05
2022-08-17T07:41:05.050Z,7.80
2022-08-17T07:43:47.052Z,8.10
2022-08-17T07:46:34.320Z,8.48
2022-08-17T07:49:00.856Z,7.93
2022-08-17T07:51:40.714Z,7.63
2022-08-17T07:54:18.317Z,6.80
2022-08-17T07:56:48.173Z,7.20
2022-08-17T07:59:28.640Z,7.78
2022-08-17T08:02:03.803Z,6.68
2022-08-17T08:05:01.123Z,6.43
2022-08-17T08:07:54.878Z,7.82
2022-08-17T08:10:27.649Z,6.72
2022-08-17T08:13:12.258Z,6.47
2022-08-17T08:15:53.719Z,6.13
2022-08-17T08:18:54.559Z,5.95
2022-08-17T08:21:30.183Z,5.72
2022-08-17T08:24:22.828Z,5.72
2022-08-17T08:27:08.109Z,5.85
2022-08-17T08:29:52.721Z,5.40
2022-08-17T08:32:44.232Z,5.40
2022-08-17T08:35:28.049Z,5.38
2022-08-17T08:38:23.490Z,4.97
2022-08-17T08:41:00.101Z,4.78
2022-08-17T08:43:58.458Z,4.82
2022-08-17T08:46:30.985Z,5.97
2022-08-17T08:50:02.539Z,4.95
2022-08-17T08:52:48.042Z,4.82
2022-08-17T08:55:44.007Z,4.60
2022-08-17T08:58:31.706Z,4.55
2022-08-17T09:01:24.582Z,4.70
2022-08-17T09:04:19.500Z,5.45
2022-08-17T09:07:10.631Z,4.13
2022-08-17T09:09:46.235Z,4.18
2022-08-17T09:12:31.537Z,3.75
2022-08-17T09:15:09.440Z,4.10
2022-08-17T09:18:30.407Z,3.50
2022-08-17T09:21:01.467Z,4.28
2022-08-17T09:23:42.385Z,4.00
2022-08-17T09:26:56.283Z,4.30
2022-08-17T09:29:25.423Z,4.15
2022-08-17T09:32:03.562Z,4.45
2022-08-17T09:34:43.581Z,4.15
2022-08-17T09:37:29.386Z,4.75
2022-08-17T09:40:13.775Z,4.07
2022-08-17T09:42:47.644Z,3.95
2022-08-17T09:45:50.556Z,4.00
2022-08-17T09:48:46.834Z,4.10
2022-08-17T09:51:34.921Z,4.10
2022-08-17T09:54:34.838Z,3.92
2022-08-17T09:57:29.167Z,4.05
2022-08-17T10:00:11.715Z,4.03
2022-08-17T10:03:09.548Z,4.38
2022-08-17T10:05:56.579Z,3.88
2022-08-17T10:08:39.791Z,3.88
2022-08-17T10:12:11.426Z,4.03
2022-08-17T10:15:07.952Z,4.13
2022-08-17T10:18:08.731Z,3.88
2022-08-17T10:21:20.487Z,4.32
2022-08-17T10:24:11.056Z,4.15
2022-08-17T10:26:55.470Z,4.30
2022-08-17T10:29:53.951Z,3.85
2022-08-17T10:32:44.906Z,4.00
2022-08-17T10:35:35.160Z,3.53
2022-08-17T10:38:29.641Z,3.40
2022-08-17T10:41:17.568Z,3.63
2022-08-17T10:44:39.648Z,3.55
2022-08-17T10:46:46.766Z,3.30
2022-08-17T10:49:23.201Z,3.70
2022-08-17T10:51:55.386Z,3.58
2022-08-17T10:54:25.021Z,3.85
2022-08-17T10:56:54.072Z,3.75
2022-08-17T10:59:43.336Z,3.83
2022-08-17T11:02:23.096Z,3.90
2022-08-17T11:05:01.469Z,4.00
2022-08-17T11:08:05.277Z,3.50
2022-08-17T11:11:10.399Z,3.80
2022-08-17T11:14:17.496Z,3.50
2022-08-17T11:17:04.683Z,3.63
2022-08-17T11:19:51.037Z,4.05
2022-08-17T11:23:02.395Z,3.70
2022-08-17T11:25:53.058Z,3.55
2022-08-17T11:28:26.877Z,3.55
2022-08-17T11:31:01.158Z,4.13
2022-08-17T11:33:33.927Z,3.65
2022-08-17T11:36:37.484Z,3.60
2022-08-17T11:39:25.720Z,3.60
2022-08-17T11:42:11.707Z,3.47
2022-08-17T11:44:55.923Z,3.35
2022-08-17T11:48:26.716Z,3.47
2022-08-17T11:51:30.627Z,3.58
2022-08-17T11:54:31.695Z,3.38
2022-08-17T11:56:54.828Z,3.15
2022-08-17T11:59:32.645Z,3.45
2022-08-17T12:02:02.336Z,3.50
2022-08-17T12:04:35.931Z,3.38
2022-08-17T12:07:13.257Z,3.55
2022-08-17T12:09:44.024Z,4.10
2022-08-17T12:12:15.761Z,3.90
2022-08-17T12:15:11.741Z,3.60
2022-08-17T12:17:39.584Z,4.00
2022-08-17T12:20:18.183Z,3.33
2022-08-17T12:22:57.454Z,3.80
2022-08-17T12:25:36.183Z,3.33
2022-08-17T12:28:05.057Z,3.90
2022-08-17T12:30:33.865Z,4.55
2022-08-17T12:33:00.898Z,4.32
2022-08-17T12:35:32.984Z,4.20
2022-08-17T12:38:01.110Z,4.85
2022-08-17T12:40:32.347Z,4.40
2022-08-17T12:43:08.505Z,4.00
2022-08-17T12:45:39.634Z,4.43
2022-08-17T12:48:09.195Z,4.22
2022-08-17T12:50:40.964Z,3.83
2022-08-17T12:53:16.432Z,4.00
2022-08-17T12:55:44.288Z,4.07
2022-08-17T12:58:14.514Z,3.72
2022-08-17T13:00:48.689Z,4.28
2022-08-17T13:03:25.422Z,4.22
2022-08-17T13:05:51.938Z,4.18
2022-08-17T13:08:38.114Z,4.32
2022-08-17T13:11:16.410Z,4.47
2022-08-17T13:13:46.252Z,3.90
2022-08-17T13:16:12.762Z,4.00
2022-08-17T13:18:46.100Z,4.30
2022-08-17T13:21:26.975Z,4.28
2022-08-17T13:24:02.302Z,3.70
2022-08-17T13:26:50.558Z,4.22
2022-08-17T13:29:33.673Z,3.72
2022-08-17T13:32:08.498Z,4.70
2022-08-17T13:35:03.741Z,4.18
2022-08-17T13:37:34.525Z,3.72
2022-08-17T13:40:09.701Z,4.05
2022-08-17T13:42:53.057Z,4.30
2022-08-17T13:45:36.562Z,3.70
2022-08-17T13:48:25.265Z,4.30
2022-08-17T13:50:54.830Z,4.28
2022-08-17T13:53:51.087Z,4.32
2022-08-17T13:56:38.571Z,4.68
2022-08-17T13:59:11.200Z,4.05
2022-08-17T14:01:43.809Z,5.03
2022-08-17T14:04:16.887Z,4.47
2022-08-17T14:06:58.251Z,4.10
2022-08-17T14:09:37.573Z,3.63
2022-08-17T14:12:09.210Z,4.00
2022-08-17T14:14:36.335Z,4.15
2022-08-17T14:17:03.596Z,4.30
2022-08-17T14:19:30.218Z,4.20
2022-08-17T14:21:59.743Z,3.83
2022-08-17T14:24:44.611Z,3.70
2022-08-17T14:27:12.007Z,4.18
2022-08-17T14:29:40.962Z,3.90
2022-08-17T14:32:19.930Z,4.47
2022-08-17T14:34:47.451Z,4.13
2022-08-17T14:37:14.068Z,4.25
2022-08-17T14:39:40.646Z,3.80
2022-08-17T14:42:08.445Z,3.47
2022-08-17T14:44:35.118Z,3.80
2022-08-17T14:47:01.712Z,4.22
2022-08-17T14:49:30.198Z,3.92
2022-08-17T14:51:57.234Z,4.35
2022-08-17T14:54:33.041Z,4.10
2022-08-17T14:57:24.603Z,4.07
2022-08-17T14:59:54.197Z,4.10
2022-08-17T15:02:29.496Z,4.10
2022-08-17T15:05:05.275Z,4.40
2022-08-17T15:07:32.046Z,4.40
2022-08-17T15:10:01.392Z,4.35
2022-08-17T15:12:32.746Z,4.30
2022-08-17T15:15:01.613Z,3.70
2022-08-17T15:17:44.678Z,4.03
2022-08-17T15:20:21.488Z,4.05
2022-08-17T15:22:55.326Z,3.90
2022-08-17T15:25:23.602Z,3.90
2022-08-17T15:27:50.524Z,3.85
2022-08-17T15:30:17.508Z,4.20
2022-08-17T15:32:51.348Z,3.75
2022-08-17T15:35:28.315Z,4.22
2022-08-17T15:38:04.957Z,3.75
2022-08-17T15:40:36.983Z,3.85
2022-08-17T15:43:10.827Z,4.10
2022-08-17T15:45:38.306Z,4.30
2022-08-17T15:48:05.115Z,4.05
2022-08-17T15:50:31.960Z,4.55
2022-08-17T15:53:00.892Z,4.60
2022-08-17T15:55:30.179Z,4.38
2022-08-17T15:57:57.101Z,4.35
2022-08-17T16:00:24.034Z,4.28
2022-08-17T16:03:45.711Z,4.38
2022-08-17T16:05:37.704Z,4.30
2022-08-17T16:08:07.208Z,4.10
2022-08-17T16:10:34.847Z,4.30
2022-08-17T16:13:03.741Z,3.78
2022-08-17T16:15:31.605Z,3.65
2022-08-17T16:17:58.625Z,4.05
2022-08-17T16:20:25.753Z,4.03
2022-08-17T16:22:52.951Z,3.80
2022-08-17T16:25:52.305Z,3.70
2022-08-17T16:28:15.652Z,3.97
2022-08-17T16:30:42.453Z,4.55
2022-08-17T16:33:11.595Z,4.10
2022-08-17T16:35:38.858Z,4.20
2022-08-17T16:38:07.041Z,4.28
2022-08-17T16:40:35.727Z,4.93
2022-08-17T16:43:03.669Z,4.22
2022-08-17T16:45:36.575Z,4.53
2022-08-17T16:48:03.937Z,4.63
2022-08-17T16:50:31.953Z,4.80
2022-08-17T16:53:08.915Z,5.07
2022-08-17T16:55:35.834Z,4.50
2022-08-17T16:58:04.373Z,5.35
2022-08-17T17:00:33.289Z,4.75
2022-08-17T17:03:19.529Z,5.32
2022-08-17T17:05:57.933Z,4.80
2022-08-17T17:08:30.214Z,5.35
2022-08-17T17:10:59.375Z,5.05
2022-08-17T17:13:36.570Z,4.93
2022-08-17T17:16:29.441Z,5.75
2022-08-17T17:19:09.378Z,5.75
2022-08-17T17:21:52.140Z,5.63
2022-08-17T17:24:37.603Z,5.13
2022-08-17T17:27:32.031Z,6.38
2022-08-17T17:30:12.775Z,5.55
2022-08-17T17:32:45.252Z,5.22
2022-08-17T17:35:21.835Z,5.00
2022-08-17T17:37:50.041Z,5.53
2022-08-17T17:40:23.167Z,5.63
2022-08-17T17:42:53.459Z,5.97
2022-08-17T17:45:23.664Z,5.97
2022-08-17T17:47:50.804Z,5.75
2022-08-17T17:50:19.818Z,5.15
2022-08-17T17:53:05.031Z,6.00
2022-08-17T17:55:49.430Z,5.60
2022-08-17T17:58:32.410Z,5.88
2022-08-17T18:01:27.329Z,5.75
2022-08-17T18:04:17.698Z,6.10
2022-08-17T18:07:15.242Z,6.07
2022-08-17T18:10:01.053Z,6.90
2022-08-17T18:12:42.957Z,5.85
2022-08-17T18:15:50.885Z,6.20
2022-08-17T18:18:17.517Z,6.72
2022-08-17T18:20:53.720Z,6.60
2022-08-17T18:23:28.186Z,6.95
2022-08-17T18:25:56.159Z,7.10
2022-08-17T18:28:42.117Z,7.30
2022-08-17T18:31:15.757Z,8.02
2022-08-17T18:33:48.381Z,8.98
2022-08-17T18:36:32.508Z,8.70
2022-08-17T18:39:17.830Z,10.30
2022-08-17T18:41:47.774Z,9.55
2022-08-17T18:44:35.313Z,9.20
2022-08-17T18:47:20.853Z,9.63
2022-08-17T18:49:58.018Z,9.60
2022-08-17T18:52:31.403Z,8.27
2022-08-17T18:55:15.725Z,8.32
2022-08-17T18:57:48.981Z,7.22
2022-08-17T19:00:40.208Z,7.20
2022-08-17T19:03:15.761Z,7.35
2022-08-17T19:05:45.959Z,6.95
2022-08-17T19:08:21.464Z,8.65
2022-08-17T19:11:25.704Z,8.98
2022-08-17T19:14:04.338Z,8.57
2022-08-17T19:16:59.271Z,8.82
2022-08-17T19:19:52.126Z,8.75
2022-08-17T19:22:58.081Z,8.00
2022-08-17T19:25:37.271Z,8.93
2022-08-17T19:28:22.939Z,8.85
2022-08-17T19:30:58.212Z,8.70
2022-08-17T19:33:25.640Z,10.48
2022-08-17T19:36:07.069Z,9.88
2022-08-17T19:38:57.444Z,10.98
2022-08-17T19:41:33.997Z,9.60
2022-08-17T19:44:11.724Z,10.10
2022-08-17T19:47:00.995Z,9.57
2022-08-17T19:49:52.191Z,10.27
2022-08-17T19:52:41.576Z,9.88
2022-08-17T19:55:24.599Z,10.40
2022-08-17T19:58:05.328Z,10.65
2022-08-17T20:00:37.842Z,10.50
2022-08-17T20:03:16.618Z,9.98
2022-08-17T20:06:14.232Z,10.35
2022-08-17T20:09:03.434Z,10.73
2022-08-17T20:11:55.345Z,11.70
2022-08-17T20:14:34.532Z,10.23
2022-08-17T20:17:03.152Z,10.02
2022-08-17T20:19:43.525Z,9.00
2022-08-17T20:22:17.379Z,7.82
2022-08-17T20:25:08.763Z,7.90
2022-08-17T20:28:05.958Z,8.15
2022-08-17T20:30:40.030Z,8.20
2022-08-17T20:33:21.967Z,8.13
2022-08-17T20:36:20.500Z,8.07
2022-08-17T20:38:59.759Z,8.35
2022-08-17T20:41:29.463Z,7.45
2022-08-17T20:43:59.109Z,7.70
2022-08-17T20:46:40.608Z,7.60
2022-08-17T20:49:39.012Z,7.15
2022-08-17T20:52:36.413Z,8.05
2022-08-17T20:55:04.335Z,7.82
2022-08-17T20:57:42.837Z,8.07
2022-08-17T21:00:33.570Z,7.85
2022-08-17T21:03:22.006Z,8.00
2022-08-17T21:06:15.341Z,7.82
2022-08-17T21:08:58.761Z,7.82
2022-08-17T21:11:57.159Z,7.95
2022-08-17T21:14:38.018Z,7.60
2022-08-17T21:17:53.741Z,8.13
2022-08-17T21:20:32.543Z,8.02
2022-08-17T21:23:29.063Z,9.07
2022-08-17T21:26:10.834Z,8.05
2022-08-17T21:29:00.474Z,8.40
2022-08-17T21:31:35.014Z,9.65
2022-08-17T21:34:21.769Z,10.68
2022-08-17T21:36:48.516Z,36.15
2022-08-17T21:39:23.335Z,9.70
2022-08-17T21:41:57.199Z,12.55
2022-08-17T21:44:41.647Z,14.88
2022-08-17T21:47:30.206Z,10.15
2022-08-17T21:50:16.070Z,9.70
2022-08-17T21:52:43.311Z,10.02
2022-08-17T21:55:21.371Z,9.50
2022-08-17T21:58:13.288Z,9.65
2022-08-17T22:00:36.623Z,9.93
2022-08-17T22:03:06.901Z,8.85
2022-08-17T22:05:37.450Z,9.15
2022-08-17T22:08:08.732Z,9.45
2022-08-17T22:10:47.724Z,8.75
2022-08-17T22:13:17.756Z,9.05
2022-08-17T22:16:27.831Z,8.90
2022-08-17T22:18:54.035Z,9.68
2022-08-17T22:21:22.599Z,9.57
2022-08-17T22:24:07.295Z,9.32
2022-08-17T22:27:03.021Z,9.50
2022-08-17T22:29:57.534Z,10.32
2022-08-17T22:32:37.645Z,9.77
2022-08-17T22:35:29.157Z,9.90
2022-08-17T22:37:57.202Z,9.48
2022-08-17T22:40:28.168Z,9.85
2022-08-17T22:42:57.095Z,10.25
2022-08-17T22:45:25.824Z,9.10
2022-08-17T22:48:00.688Z,10.15
2022-08-17T22:50:33.035Z,9.73
2022-08-17T22:53:22.705Z,9.98
2022-08-17T22:56:10.868Z,9.25
2022-08-17T22:59:02.460Z,9.98
2022-08-17T23:01:32.498Z,9.63
2022-08-17T23:04:01.918Z,10.10
2022-08-17T23:06:29.416Z,9.73
2022-08-17T23:08:56.492Z,10.50
2022-08-17T23:11:42.815Z,9.55
2022-08-17T23:14:14.403Z,9.55
2022-08-17T23:16:44.556Z,9.77
2022-08-17T23:19:13.722Z,10.52
2022-08-17T23:21:40.872Z,10.13
2022-08-17T23:24:08.970Z,10.23
2022-08-17T23:26:38.048Z,10.10
2022-08-17T23:29:08.897Z,10.60
2022-08-17T23:31:37.228Z,10.55
2022-08-17T23:34:09.040Z,10.63
2022-08-17T23:36:36.373Z,11.50
2022-08-17T23:39:04.624Z,10.27
2022-08-17T23:41:38.302Z,10.00
2022-08-17T23:44:06.297Z,10.18
2022-08-17T23:46:34.354Z,9.73
2022-08-17T23:49:00.995Z,9.23
2022-08-17T23:51:38.386Z,9.73
2022-08-17T23:54:12.546Z,10.05
2022-08-17T23:56:46.559Z,9.77
2022-08-17T23:59:21.415Z,10.70
